sensor_id;sensor_type;location;lat;lon;timestamp;P1;durP1;ratioP1;P2;durP2;ratioP2
8574;SDS011;4325;42.520;27.448;2023-04-25T00:00:26;21.83;;;7.80;;
8574;SDS011;4325;42.520;27.448;2023-04-25T00:02:53;13.60;;;8.20;;
8574;SDS011;4325;42.520;27.448;2023-04-25T00:05:21;20.07;;;9.13;;
8574;SDS011;4325;42.520;27.448;2023-04-25T00:07:48;12.27;;;7.63;;
8574;SDS011;4325;42.520;27.448;2023-04-25T00:10:15;18.23;;;8.30;;
8574;SDS011;4325;42.520;27.448;2023-04-25T00:12:42;19.73;;;8.30;;
8574;SDS011;4325;42.520;27.448;2023-04-25T00:15:09;13.70;;;8.67;;
8574;SDS011;4325;42.520;27.448;2023-04-25T00:17:39;16.23;;;8.00;;
8574;SDS011;4325;42.520;27.448;2023-04-25T00:20:06;20.70;;;8.67;;
8574;SDS011;4325;42.520;27.448;2023-04-25T00:22:34;17.00;;;7.97;;
8574;SDS011;4325;42.520;27.448;2023-04-25T00:25:02;15.83;;;7.63;;
8574;SDS011;4325;42.520;27.448;2023-04-25T00:27:29;22.80;;;8.87;;
8574;SDS011;4325;42.520;27.448;2023-04-25T00:29:56;17.83;;;8.50;;
8574;SDS011;4325;42.520;27.448;2023-04-25T00:32:23;18.07;;;8.17;;
8574;SDS011;4325;42.520;27.448;2023-04-25T00:34:51;18.70;;;7.93;;
8574;SDS011;4325;42.520;27.448;2023-04-25T00:37:18;15.40;;;7.73;;
8574;SDS011;4325;42.520;27.448;2023-04-25T00:39:45;16.23;;;7.63;;
8574;SDS011;4325;42.520;27.448;2023-04-25T00:42:12;12.77;;;7.67;;
8574;SDS011;4325;42.520;27.448;2023-04-25T00:44:39;16.00;;;8.03;;
8574;SDS011;4325;42.520;27.448;2023-04-25T00:47:06;16.87;;;7.53;;
8574;SDS011;4325;42.520;27.448;2023-04-25T00:49:33;19.13;;;7.97;;
8574;SDS011;4325;42.520;27.448;2023-04-25T00:52:01;18.40;;;7.20;;
8574;SDS011;4325;42.520;27.448;2023-04-25T00:54:28;18.53;;;7.13;;
8574;SDS011;4325;42.520;27.448;2023-04-25T00:56:56;17.33;;;7.70;;
8574;SDS011;4325;42.520;27.448;2023-04-25T00:59:23;14.90;;;7.30;;
8574;SDS011;4325;42.520;27.448;2023-04-25T01:01:50;14.87;;;7.87;;
8574;SDS011;4325;42.520;27.448;2023-04-25T01:04:17;16.00;;;8.17;;
8574;SDS011;4325;42.520;27.448;2023-04-25T01:06:44;18.87;;;8.43;;
8574;SDS011;4325;42.520;27.448;2023-04-25T01:09:12;19.13;;;7.47;;
8574;SDS011;4325;42.520;27.448;2023-04-25T01:11:40;22.33;;;8.17;;
8574;SDS011;4325;42.520;27.448;2023-04-25T01:14:06;14.03;;;7.97;;
8574;SDS011;4325;42.520;27.448;2023-04-25T01:16:33;22.23;;;8.83;;
8574;SDS011;4325;42.520;27.448;2023-04-25T01:19:01;14.63;;;8.03;;
8574;SDS011;4325;42.520;27.448;2023-04-25T01:21:32;16.47;;;8.50;;
8574;SDS011;4325;42.520;27.448;2023-04-25T01:23:58;22.87;;;10.57;;
8574;SDS011;4325;42.520;27.448;2023-04-25T01:26:26;21.83;;;11.47;;
8574;SDS011;4325;42.520;27.448;2023-04-25T01:28:53;16.77;;;9.90;;
8574;SDS011;4325;42.520;27.448;2023-04-25T01:31:20;18.30;;;9.33;;
8574;SDS011;4325;42.520;27.448;2023-04-25T01:33:47;22.37;;;10.23;;
8574;SDS011;4325;42.520;27.448;2023-04-25T01:36:14;21.67;;;10.13;;
8574;SDS011;4325;42.520;27.448;2023-04-25T01:38:43;23.50;;;10.63;;
8574;SDS011;4325;42.520;27.448;2023-04-25T01:41:11;18.33;;;11.03;;
8574;SDS011;4325;42.520;27.448;2023-04-25T01:43:38;22.57;;;10.47;;
8574;SDS011;4325;42.520;27.448;2023-04-25T01:46:05;23.70;;;10.77;;
8574;SDS011;4325;42.520;27.448;2023-04-25T01:48:32;24.40;;;10.67;;
8574;SDS011;4325;42.520;27.448;2023-04-25T01:50:59;23.57;;;11.13;;
8574;SDS011;4325;42.520;27.448;2023-04-25T01:53:26;18.93;;;10.73;;
8574;SDS011;4325;42.520;27.448;2023-04-25T01:55:54;18.87;;;10.93;;
8574;SDS011;4325;42.520;27.448;2023-04-25T01:58:21;13.80;;;9.33;;
8574;SDS011;4325;42.520;27.448;2023-04-25T02:00:48;26.17;;;11.33;;
8574;SDS011;4325;42.520;27.448;2023-04-25T02:03:15;20.37;;;9.67;;
8574;SDS011;4325;42.520;27.448;2023-04-25T02:05:41;23.13;;;10.57;;
8574;SDS011;4325;42.520;27.448;2023-04-25T02:08:08;22.93;;;10.40;;
8574;SDS011;4325;42.520;27.448;2023-04-25T02:10:35;25.67;;;10.47;;
8574;SDS011;4325;42.520;27.448;2023-04-25T02:13:04;20.23;;;11.30;;
8574;SDS011;4325;42.520;27.448;2023-04-25T02:15:31;26.33;;;10.80;;
8574;SDS011;4325;42.520;27.448;2023-04-25T02:17:58;25.70;;;11.43;;
8574;SDS011;4325;42.520;27.448;2023-04-25T02:20:26;25.20;;;11.43;;
8574;SDS011;4325;42.520;27.448;2023-04-25T02:22:53;23.47;;;12.13;;
8574;SDS011;4325;42.520;27.448;2023-04-25T02:25:20;26.27;;;11.43;;
8574;SDS011;4325;42.520;27.448;2023-04-25T02:27:48;26.23;;;11.77;;
8574;SDS011;4325;42.520;27.448;2023-04-25T02:30:17;17.93;;;10.67;;
8574;SDS011;4325;42.520;27.448;2023-04-25T02:32:44;20.63;;;10.97;;
8574;SDS011;4325;42.520;27.448;2023-04-25T02:35:11;20.67;;;10.40;;
8574;SDS011;4325;42.520;27.448;2023-04-25T02:37:38;22.30;;;11.43;;
8574;SDS011;4325;42.520;27.448;2023-04-25T02:40:06;23.77;;;11.20;;
8574;SDS011;4325;42.520;27.448;2023-04-25T02:42:34;23.00;;;11.53;;
8574;SDS011;4325;42.520;27.448;2023-04-25T02:45:01;22.23;;;11.37;;
8574;SDS011;4325;42.520;27.448;2023-04-25T02:47:29;23.37;;;11.27;;
8574;SDS011;4325;42.520;27.448;2023-04-25T02:49:56;28.03;;;11.10;;
8574;SDS011;4325;42.520;27.448;2023-04-25T02:52:23;20.57;;;11.27;;
8574;SDS011;4325;42.520;27.448;2023-04-25T02:54:50;24.33;;;11.03;;
8574;SDS011;4325;42.520;27.448;2023-04-25T02:57:17;26.97;;;12.17;;
8574;SDS011;4325;42.520;27.448;2023-04-25T02:59:44;23.07;;;11.27;;
8574;SDS011;4325;42.520;27.448;2023-04-25T03:02:10;18.37;;;12.37;;
8574;SDS011;4325;42.520;27.448;2023-04-25T03:04:39;21.47;;;11.03;;
8574;SDS011;4325;42.520;27.448;2023-04-25T03:07:05;23.00;;;11.53;;
8574;SDS011;4325;42.520;27.448;2023-04-25T03:09:32;23.83;;;11.57;;
8574;SDS011;4325;42.520;27.448;2023-04-25T03:11:59;25.73;;;13.07;;
8574;SDS011;4325;42.520;27.448;2023-04-25T03:14:26;24.27;;;11.90;;
8574;SDS011;4325;42.520;27.448;2023-04-25T03:16:53;29.07;;;13.57;;
8574;SDS011;4325;42.520;27.448;2023-04-25T03:19:20;32.47;;;17.40;;
8574;SDS011;4325;42.520;27.448;2023-04-25T03:21:48;24.43;;;14.00;;
8574;SDS011;4325;42.520;27.448;2023-04-25T03:24:15;25.50;;;16.00;;
8574;SDS011;4325;42.520;27.448;2023-04-25T03:26:42;29.47;;;14.43;;
8574;SDS011;4325;42.520;27.448;2023-04-25T03:29:08;22.17;;;12.33;;
8574;SDS011;4325;42.520;27.448;2023-04-25T03:31:35;28.20;;;13.03;;
8574;SDS011;4325;42.520;27.448;2023-04-25T03:34:02;22.50;;;12.93;;
8574;SDS011;4325;42.520;27.448;2023-04-25T03:36:29;30.40;;;13.93;;
8574;SDS011;4325;42.520;27.448;2023-04-25T03:38:57;25.37;;;12.77;;
8574;SDS011;4325;42.520;27.448;2023-04-25T03:41:24;29.40;;;14.97;;
8574;SDS011;4325;42.520;27.448;2023-04-25T03:43:51;27.73;;;12.73;;
8574;SDS011;4325;42.520;27.448;2023-04-25T03:46:18;21.33;;;12.33;;
8574;SDS011;4325;42.520;27.448;2023-04-25T03:48:44;35.63;;;18.50;;
8574;SDS011;4325;42.520;27.448;2023-04-25T03:51:11;19.23;;;13.17;;
8574;SDS011;4325;42.520;27.448;2023-04-25T03:53:38;30.60;;;15.07;;
8574;SDS011;4325;42.520;27.448;2023-04-25T03:56:07;25.10;;;15.37;;
8574;SDS011;4325;42.520;27.448;2023-04-25T03:58:34;26.80;;;16.63;;
8574;SDS011;4325;42.520;27.448;2023-04-25T04:01:01;28.83;;;13.77;;
8574;SDS011;4325;42.520;27.448;2023-04-25T04:03:32;38.63;;;19.70;;
8574;SDS011;4325;42.520;27.448;2023-04-25T04:05:59;25.97;;;14.53;;
8574;SDS011;4325;42.520;27.448;2023-04-25T04:08:26;32.77;;;20.43;;
8574;SDS011;4325;42.520;27.448;2023-04-25T04:10:53;30.27;;;15.63;;
8574;SDS011;4325;42.520;27.448;2023-04-25T04:13:21;21.00;;;14.57;;
8574;SDS011;4325;42.520;27.448;2023-04-25T04:15:48;27.90;;;14.90;;
8574;SDS011;4325;42.520;27.448;2023-04-25T04:18:14;31.40;;;13.87;;
8574;SDS011;4325;42.520;27.448;2023-04-25T04:20:41;22.37;;;14.13;;
8574;SDS011;4325;42.520;27.448;2023-04-25T04:23:08;25.03;;;14.07;;
8574;SDS011;4325;42.520;27.448;2023-04-25T04:25:35;20.30;;;12.80;;
8574;SDS011;4325;42.520;27.448;2023-04-25T04:28:02;30.70;;;14.43;;
8574;SDS011;4325;42.520;27.448;2023-04-25T04:30:31;27.17;;;13.57;;
8574;SDS011;4325;42.520;27.448;2023-04-25T04:33:01;22.80;;;12.67;;
8574;SDS011;4325;42.520;27.448;2023-04-25T04:35:28;28.80;;;14.23;;
8574;SDS011;4325;42.520;27.448;2023-04-25T04:37:55;29.17;;;14.87;;
8574;SDS011;4325;42.520;27.448;2023-04-25T04:40:22;25.33;;;13.60;;
8574;SDS011;4325;42.520;27.448;2023-04-25T04:42:50;29.77;;;14.20;;
8574;SDS011;4325;42.520;27.448;2023-04-25T04:45:18;38.27;;;15.00;;
8574;SDS011;4325;42.520;27.448;2023-04-25T04:47:47;24.73;;;13.53;;
8574;SDS011;4325;42.520;27.448;2023-04-25T04:50:14;25.77;;;13.43;;
8574;SDS011;4325;42.520;27.448;2023-04-25T04:52:41;25.33;;;12.27;;
8574;SDS011;4325;42.520;27.448;2023-04-25T04:55:08;27.10;;;12.17;;
8574;SDS011;4325;42.520;27.448;2023-04-25T04:57:35;28.93;;;14.07;;
8574;SDS011;4325;42.520;27.448;2023-04-25T05:00:04;22.90;;;12.80;;
8574;SDS011;4325;42.520;27.448;2023-04-25T05:02:36;25.60;;;13.13;;
8574;SDS011;4325;42.520;27.448;2023-04-25T05:05:05;26.37;;;13.03;;
8574;SDS011;4325;42.520;27.448;2023-04-25T05:07:32;25.83;;;12.70;;
8574;SDS011;4325;42.520;27.448;2023-04-25T05:09:59;20.20;;;11.53;;
8574;SDS011;4325;42.520;27.448;2023-04-25T05:12:26;28.97;;;12.13;;
8574;SDS011;4325;42.520;27.448;2023-04-25T05:14:53;27.67;;;12.67;;
8574;SDS011;4325;42.520;27.448;2023-04-25T05:17:20;20.70;;;12.13;;
8574;SDS011;4325;42.520;27.448;2023-04-25T05:19:46;25.07;;;11.83;;
8574;SDS011;4325;42.520;27.448;2023-04-25T05:22:15;19.80;;;11.60;;
8574;SDS011;4325;42.520;27.448;2023-04-25T05:24:41;20.70;;;11.90;;
8574;SDS011;4325;42.520;27.448;2023-04-25T05:27:08;23.83;;;12.67;;
8574;SDS011;4325;42.520;27.448;2023-04-25T05:29:35;26.80;;;12.43;;
8574;SDS011;4325;42.520;27.448;2023-04-25T05:32:02;18.63;;;12.00;;
8574;SDS011;4325;42.520;27.448;2023-04-25T05:34:29;27.60;;;11.60;;
8574;SDS011;4325;42.520;27.448;2023-04-25T05:36:56;25.83;;;11.77;;
8574;SDS011;4325;42.520;27.448;2023-04-25T05:39:24;22.80;;;11.73;;
8574;SDS011;4325;42.520;27.448;2023-04-25T05:41:51;16.83;;;9.97;;
8574;SDS011;4325;42.520;27.448;2023-04-25T05:44:18;19.60;;;10.73;;
8574;SDS011;4325;42.520;27.448;2023-04-25T05:46:45;23.20;;;11.43;;
8574;SDS011;4325;42.520;27.448;2023-04-25T05:49:12;20.50;;;10.00;;
8574;SDS011;4325;42.520;27.448;2023-04-25T05:51:39;23.20;;;11.27;;
8574;SDS011;4325;42.520;27.448;2023-04-25T05:54:06;28.00;;;11.50;;
8574;SDS011;4325;42.520;27.448;2023-04-25T05:56:34;20.07;;;10.97;;
8574;SDS011;4325;42.520;27.448;2023-04-25T05:59:01;28.63;;;12.30;;
8574;SDS011;4325;42.520;27.448;2023-04-25T06:01:28;23.63;;;10.93;;
8574;SDS011;4325;42.520;27.448;2023-04-25T06:03:55;24.87;;;11.43;;
8574;SDS011;4325;42.520;27.448;2023-04-25T06:06:21;18.57;;;10.20;;
8574;SDS011;4325;42.520;27.448;2023-04-25T06:08:48;18.47;;;11.00;;
8574;SDS011;4325;42.520;27.448;2023-04-25T06:11:15;15.07;;;9.93;;
8574;SDS011;4325;42.520;27.448;2023-04-25T06:13:44;22.50;;;8.50;;
8574;SDS011;4325;42.520;27.448;2023-04-25T06:16:10;15.63;;;8.70;;
8574;SDS011;4325;42.520;27.448;2023-04-25T06:18:37;14.80;;;8.00;;
8574;SDS011;4325;42.520;27.448;2023-04-25T06:21:04;13.00;;;9.33;;
8574;SDS011;4325;42.520;27.448;2023-04-25T06:23:31;17.23;;;8.63;;
8574;SDS011;4325;42.520;27.448;2023-04-25T06:25:58;23.87;;;9.70;;
8574;SDS011;4325;42.520;27.448;2023-04-25T06:28:25;12.93;;;9.53;;
8574;SDS011;4325;42.520;27.448;2023-04-25T06:30:53;15.43;;;10.17;;
8574;SDS011;4325;42.520;27.448;2023-04-25T06:33:20;28.07;;;14.13;;
8574;SDS011;4325;42.520;27.448;2023-04-25T06:35:47;31.60;;;14.73;;
8574;SDS011;4325;42.520;27.448;2023-04-25T06:38:14;23.27;;;15.03;;
8574;SDS011;4325;42.520;27.448;2023-04-25T06:40:41;27.43;;;14.80;;
8574;SDS011;4325;42.520;27.448;2023-04-25T06:43:08;25.80;;;16.60;;
8574;SDS011;4325;42.520;27.448;2023-04-25T06:45:35;26.63;;;16.57;;
8574;SDS011;4325;42.520;27.448;2023-04-25T06:48:04;32.30;;;17.77;;
8574;SDS011;4325;42.520;27.448;2023-04-25T06:50:30;29.57;;;15.43;;
8574;SDS011;4325;42.520;27.448;2023-04-25T06:52:57;27.93;;;15.20;;
8574;SDS011;4325;42.520;27.448;2023-04-25T06:55:26;22.70;;;15.03;;
8574;SDS011;4325;42.520;27.448;2023-04-25T06:57:53;27.13;;;14.73;;
8574;SDS011;4325;42.520;27.448;2023-04-25T07:00:20;23.90;;;13.30;;
8574;SDS011;4325;42.520;27.448;2023-04-25T07:02:47;24.67;;;15.07;;
8574;SDS011;4325;42.520;27.448;2023-04-25T07:05:15;33.33;;;15.73;;
8574;SDS011;4325;42.520;27.448;2023-04-25T07:07:42;27.63;;;14.93;;
8574;SDS011;4325;42.520;27.448;2023-04-25T07:10:09;23.77;;;15.00;;
8574;SDS011;4325;42.520;27.448;2023-04-25T07:12:36;27.37;;;15.20;;
8574;SDS011;4325;42.520;27.448;2023-04-25T07:15:06;24.30;;;14.53;;
8574;SDS011;4325;42.520;27.448;2023-04-25T07:17:35;19.87;;;11.73;;
8574;SDS011;4325;42.520;27.448;2023-04-25T07:20:02;18.50;;;10.30;;
8574;SDS011;4325;42.520;27.448;2023-04-25T07:22:32;19.10;;;9.43;;
8574;SDS011;4325;42.520;27.448;2023-04-25T07:24:59;19.43;;;10.20;;
8574;SDS011;4325;42.520;27.448;2023-04-25T07:27:26;14.87;;;9.57;;
8574;SDS011;4325;42.520;27.448;2023-04-25T07:29:53;17.10;;;10.37;;
8574;SDS011;4325;42.520;27.448;2023-04-25T07:32:19;21.33;;;12.63;;
8574;SDS011;4325;42.520;27.448;2023-04-25T07:34:46;19.83;;;13.20;;
8574;SDS011;4325;42.520;27.448;2023-04-25T07:37:13;17.10;;;10.90;;
8574;SDS011;4325;42.520;27.448;2023-04-25T07:39:42;18.80;;;9.87;;
8574;SDS011;4325;42.520;27.448;2023-04-25T07:42:09;13.07;;;8.70;;
8574;SDS011;4325;42.520;27.448;2023-04-25T07:44:35;13.07;;;8.47;;
8574;SDS011;4325;42.520;27.448;2023-04-25T07:47:04;19.07;;;8.30;;
8574;SDS011;4325;42.520;27.448;2023-04-25T07:49:32;19.63;;;8.87;;
8574;SDS011;4325;42.520;27.448;2023-04-25T07:51:59;12.60;;;8.23;;
8574;SDS011;4325;42.520;27.448;2023-04-25T07:54:27;22.77;;;8.73;;
8574;SDS011;4325;42.520;27.448;2023-04-25T07:56:55;22.83;;;8.17;;
8574;SDS011;4325;42.520;27.448;2023-04-25T07:59:22;15.17;;;8.53;;
8574;SDS011;4325;42.520;27.448;2023-04-25T08:01:52;21.47;;;8.37;;
8574;SDS011;4325;42.520;27.448;2023-04-25T08:04:19;15.10;;;7.57;;
8574;SDS011;4325;42.520;27.448;2023-04-25T08:06:57;9.87;;;7.67;;
8574;SDS011;4325;42.520;27.448;2023-04-25T08:09:24;17.13;;;7.87;;
8574;SDS011;4325;42.520;27.448;2023-04-25T08:11:51;23.03;;;8.07;;
8574;SDS011;4325;42.520;27.448;2023-04-25T08:14:19;16.13;;;7.73;;
8574;SDS011;4325;42.520;27.448;2023-04-25T08:16:49;30.40;;;8.50;;
8574;SDS011;4325;42.520;27.448;2023-04-25T08:19:18;18.37;;;8.20;;
8574;SDS011;4325;42.520;27.448;2023-04-25T08:21:45;16.80;;;6.10;;
8574;SDS011;4325;42.520;27.448;2023-04-25T08:24:16;14.00;;;7.43;;
8574;SDS011;4325;42.520;27.448;2023-04-25T08:26:49;12.40;;;6.20;;
8574;SDS011;4325;42.520;27.448;2023-04-25T08:29:33;18.80;;;6.33;;
8574;SDS011;4325;42.520;27.448;2023-04-25T08:32:01;15.83;;;6.67;;
8574;SDS011;4325;42.520;27.448;2023-04-25T08:34:35;15.90;;;6.53;;
8574;SDS011;4325;42.520;27.448;2023-04-25T08:37:07;19.43;;;7.63;;
8574;SDS011;4325;42.520;27.448;2023-04-25T08:39:37;14.83;;;7.33;;
8574;SDS011;4325;42.520;27.448;2023-04-25T08:42:09;17.27;;;6.73;;
8574;SDS011;4325;42.520;27.448;2023-04-25T08:44:44;12.90;;;5.97;;
8574;SDS011;4325;42.520;27.448;2023-04-25T08:47:14;16.00;;;6.27;;
8574;SDS011;4325;42.520;27.448;2023-04-25T08:49:46;12.80;;;6.10;;
8574;SDS011;4325;42.520;27.448;2023-04-25T08:52:19;11.17;;;5.83;;
8574;SDS011;4325;42.520;27.448;2023-04-25T08:54:49;10.73;;;5.53;;
8574;SDS011;4325;42.520;27.448;2023-04-25T08:57:17;11.40;;;5.30;;
8574;SDS011;4325;42.520;27.448;2023-04-25T08:59:56;14.70;;;6.27;;
8574;SDS011;4325;42.520;27.448;2023-04-25T09:02:39;11.97;;;5.30;;
8574;SDS011;4325;42.520;27.448;2023-04-25T09:05:08;8.43;;;4.63;;
8574;SDS011;4325;42.520;27.448;2023-04-25T09:07:36;8.40;;;4.57;;
8574;SDS011;4325;42.520;27.448;2023-04-25T09:10:03;11.30;;;4.53;;
8574;SDS011;4325;42.520;27.448;2023-04-25T09:12:30;10.27;;;4.63;;
8574;SDS011;4325;42.520;27.448;2023-04-25T09:15:03;6.55;;;4.50;;
8574;SDS011;4325;42.520;27.448;2023-04-25T09:17:32;6.90;;;4.47;;
8574;SDS011;4325;42.520;27.448;2023-04-25T09:20:05;12.23;;;6.97;;
8574;SDS011;4325;42.520;27.448;2023-04-25T09:22:33;11.68;;;4.70;;
8574;SDS011;4325;42.520;27.448;2023-04-25T09:25:02;11.57;;;4.23;;
8574;SDS011;4325;42.520;27.448;2023-04-25T09:27:29;9.15;;;4.65;;
8574;SDS011;4325;42.520;27.448;2023-04-25T09:29:57;9.50;;;5.20;;
8574;SDS011;4325;42.520;27.448;2023-04-25T09:32:26;9.63;;;4.85;;
8574;SDS011;4325;42.520;27.448;2023-04-25T09:34:53;9.25;;;4.50;;
8574;SDS011;4325;42.520;27.448;2023-04-25T09:37:22;11.35;;;4.43;;
8574;SDS011;4325;42.520;27.448;2023-04-25T09:39:50;7.25;;;4.28;;
8574;SDS011;4325;42.520;27.448;2023-04-25T09:42:21;6.75;;;3.92;;
8574;SDS011;4325;42.520;27.448;2023-04-25T09:44:51;8.35;;;4.82;;
8574;SDS011;4325;42.520;27.448;2023-04-25T09:47:19;5.95;;;3.45;;
8574;SDS011;4325;42.520;27.448;2023-04-25T09:49:50;6.25;;;3.40;;
8574;SDS011;4325;42.520;27.448;2023-04-25T09:52:18;4.95;;;3.90;;
8574;SDS011;4325;42.520;27.448;2023-04-25T09:54:46;5.15;;;3.72;;
8574;SDS011;4325;42.520;27.448;2023-04-25T09:57:14;8.32;;;4.10;;
8574;SDS011;4325;42.520;27.448;2023-04-25T09:59:44;5.55;;;3.65;;
8574;SDS011;4325;42.520;27.448;2023-04-25T10:02:13;5.97;;;3.85;;
8574;SDS011;4325;42.520;27.448;2023-04-25T10:04:41;4.50;;;3.28;;
8574;SDS011;4325;42.520;27.448;2023-04-25T10:07:11;4.28;;;3.53;;
8574;SDS011;4325;42.520;27.448;2023-04-25T10:09:38;11.95;;;6.18;;
8574;SDS011;4325;42.520;27.448;2023-04-25T10:12:06;16.15;;;6.75;;
8574;SDS011;4325;42.520;27.448;2023-04-25T10:14:34;17.10;;;7.93;;
8574;SDS011;4325;42.520;27.448;2023-04-25T10:17:01;14.38;;;6.93;;
8574;SDS011;4325;42.520;27.448;2023-04-25T10:19:28;12.15;;;5.80;;
8574;SDS011;4325;42.520;27.448;2023-04-25T10:21:58;11.40;;;6.28;;
8574;SDS011;4325;42.520;27.448;2023-04-25T10:24:34;13.98;;;6.95;;
8574;SDS011;4325;42.520;27.448;2023-04-25T10:27:02;18.77;;;7.20;;
8574;SDS011;4325;42.520;27.448;2023-04-25T10:29:30;11.95;;;5.93;;
8574;SDS011;4325;42.520;27.448;2023-04-25T10:31:57;10.43;;;6.32;;
8574;SDS011;4325;42.520;27.448;2023-04-25T10:34:25;12.20;;;6.65;;
8574;SDS011;4325;42.520;27.448;2023-04-25T10:37:04;12.43;;;6.40;;
8574;SDS011;4325;42.520;27.448;2023-04-25T10:39:37;7.68;;;5.57;;
8574;SDS011;4325;42.520;27.448;2023-04-25T10:42:06;6.72;;;5.18;;
8574;SDS011;4325;42.520;27.448;2023-04-25T10:44:34;11.77;;;5.32;;
8574;SDS011;4325;42.520;27.448;2023-04-25T10:47:03;7.82;;;4.90;;
8574;SDS011;4325;42.520;27.448;2023-04-25T10:49:33;6.88;;;4.68;;
8574;SDS011;4325;42.520;27.448;2023-04-25T10:52:13;6.35;;;4.97;;
8574;SDS011;4325;42.520;27.448;2023-04-25T10:54:44;6.32;;;4.93;;
8574;SDS011;4325;42.520;27.448;2023-04-25T10:57:32;10.50;;;5.20;;
8574;SDS011;4325;42.520;27.448;2023-04-25T11:00:06;6.67;;;4.60;;
8574;SDS011;4325;42.520;27.448;2023-04-25T11:02:42;9.93;;;5.30;;
8574;SDS011;4325;42.520;27.448;2023-04-25T11:05:16;12.03;;;5.20;;
8574;SDS011;4325;42.520;27.448;2023-04-25T11:07:49;7.63;;;5.77;;
8574;SDS011;4325;42.520;27.448;2023-04-25T11:10:19;11.13;;;5.63;;
8574;SDS011;4325;42.520;27.448;2023-04-25T11:12:46;10.80;;;5.40;;
8574;SDS011;4325;42.520;27.448;2023-04-25T11:15:13;9.17;;;4.87;;
8574;SDS011;4325;42.520;27.448;2023-04-25T11:17:40;7.40;;;4.73;;
8574;SDS011;4325;42.520;27.448;2023-04-25T11:20:10;10.77;;;4.87;;
8574;SDS011;4325;42.520;27.448;2023-04-25T11:22:38;9.20;;;4.73;;
8574;SDS011;4325;42.520;27.448;2023-04-25T11:25:07;5.37;;;4.40;;
8574;SDS011;4325;42.520;27.448;2023-04-25T11:27:49;7.33;;;4.10;;
8574;SDS011;4325;42.520;27.448;2023-04-25T11:30:16;7.90;;;4.33;;
8574;SDS011;4325;42.520;27.448;2023-04-25T11:32:44;9.23;;;4.83;;
8574;SDS011;4325;42.520;27.448;2023-04-25T11:35:11;5.53;;;3.83;;
8574;SDS011;4325;42.520;27.448;2023-04-25T11:37:38;16.87;;;6.40;;
8574;SDS011;4325;42.520;27.448;2023-04-25T11:40:06;36.67;;;8.63;;
8574;SDS011;4325;42.520;27.448;2023-04-25T11:42:36;28.57;;;9.33;;
8574;SDS011;4325;42.520;27.448;2023-04-25T11:45:05;13.83;;;6.93;;
8574;SDS011;4325;42.520;27.448;2023-04-25T11:47:33;15.47;;;6.77;;
8574;SDS011;4325;42.520;27.448;2023-04-25T11:50:00;15.83;;;7.77;;
8574;SDS011;4325;42.520;27.448;2023-04-25T11:52:37;12.20;;;6.40;;
8574;SDS011;4325;42.520;27.448;2023-04-25T11:55:06;9.03;;;5.73;;
8574;SDS011;4325;42.520;27.448;2023-04-25T11:57:34;7.87;;;5.20;;
8574;SDS011;4325;42.520;27.448;2023-04-25T12:00:06;9.47;;;6.17;;
8574;SDS011;4325;42.520;27.448;2023-04-25T12:02:40;12.50;;;6.67;;
8574;SDS011;4325;42.520;27.448;2023-04-25T12:05:08;7.70;;;6.00;;
8574;SDS011;4325;42.520;27.448;2023-04-25T12:07:35;13.07;;;6.17;;
8574;SDS011;4325;42.520;27.448;2023-04-25T12:10:06;8.57;;;5.60;;
8574;SDS011;4325;42.520;27.448;2023-04-25T12:12:34;9.37;;;5.87;;
8574;SDS011;4325;42.520;27.448;2023-04-25T12:15:09;11.33;;;5.70;;
8574;SDS011;4325;42.520;27.448;2023-04-25T12:17:38;10.10;;;6.00;;
8574;SDS011;4325;42.520;27.448;2023-04-25T12:20:06;7.13;;;6.10;;
8574;SDS011;4325;42.520;27.448;2023-04-25T12:22:34;15.20;;;6.87;;
8574;SDS011;4325;42.520;27.448;2023-04-25T12:25:02;15.50;;;6.83;;
8574;SDS011;4325;42.520;27.448;2023-04-25T12:27:30;11.07;;;6.93;;
8574;SDS011;4325;42.520;27.448;2023-04-25T12:29:58;13.27;;;7.43;;
8574;SDS011;4325;42.520;27.448;2023-04-25T12:32:28;15.77;;;6.40;;
8574;SDS011;4325;42.520;27.448;2023-04-25T12:34:55;14.73;;;6.63;;
8574;SDS011;4325;42.520;27.448;2023-04-25T12:37:22;12.80;;;6.93;;
8574;SDS011;4325;42.520;27.448;2023-04-25T12:39:49;7.57;;;5.70;;
8574;SDS011;4325;42.520;27.448;2023-04-25T12:42:16;10.17;;;5.77;;
8574;SDS011;4325;42.520;27.448;2023-04-25T12:44:43;7.73;;;5.90;;
8574;SDS011;4325;42.520;27.448;2023-04-25T12:47:11;12.63;;;6.70;;
8574;SDS011;4325;42.520;27.448;2023-04-25T12:49:39;11.93;;;6.28;;
8574;SDS011;4325;42.520;27.448;2023-04-25T12:52:06;11.63;;;6.75;;
8574;SDS011;4325;42.520;27.448;2023-04-25T12:54:33;8.02;;;6.13;;
8574;SDS011;4325;42.520;27.448;2023-04-25T12:57:00;7.93;;;5.97;;
8574;SDS011;4325;42.520;27.448;2023-04-25T12:59:28;8.30;;;5.75;;
8574;SDS011;4325;42.520;27.448;2023-04-25T13:01:54;13.68;;;5.57;;
8574;SDS011;4325;42.520;27.448;2023-04-25T13:04:21;13.90;;;8.30;;
8574;SDS011;4325;42.520;27.448;2023-04-25T13:06:49;17.98;;;6.55;;
8574;SDS011;4325;42.520;27.448;2023-04-25T13:09:16;12.02;;;5.80;;
8574;SDS011;4325;42.520;27.448;2023-04-25T13:11:43;17.60;;;6.22;;
8574;SDS011;4325;42.520;27.448;2023-04-25T13:14:11;17.77;;;6.55;;
8574;SDS011;4325;42.520;27.448;2023-04-25T13:16:37;16.67;;;6.90;;
8574;SDS011;4325;42.520;27.448;2023-04-25T13:19:04;14.20;;;6.95;;
8574;SDS011;4325;42.520;27.448;2023-04-25T13:21:33;20.80;;;7.90;;
8574;SDS011;4325;42.520;27.448;2023-04-25T13:24:01;16.83;;;7.20;;
8574;SDS011;4325;42.520;27.448;2023-04-25T13:26:28;12.13;;;6.93;;
8574;SDS011;4325;42.520;27.448;2023-04-25T13:28:55;11.93;;;6.50;;
8574;SDS011;4325;42.520;27.448;2023-04-25T13:31:22;22.80;;;7.13;;
8574;SDS011;4325;42.520;27.448;2023-04-25T13:33:49;14.33;;;7.00;;
8574;SDS011;4325;42.520;27.448;2023-04-25T13:36:16;16.03;;;6.40;;
8574;SDS011;4325;42.520;27.448;2023-04-25T13:38:43;21.00;;;7.57;;
8574;SDS011;4325;42.520;27.448;2023-04-25T13:41:13;13.13;;;7.40;;
8574;SDS011;4325;42.520;27.448;2023-04-25T13:43:43;18.83;;;7.57;;
8574;SDS011;4325;42.520;27.448;2023-04-25T13:46:12;16.17;;;7.53;;
8574;SDS011;4325;42.520;27.448;2023-04-25T13:48:40;10.63;;;8.03;;
8574;SDS011;4325;42.520;27.448;2023-04-25T13:51:12;15.43;;;8.10;;
8574;SDS011;4325;42.520;27.448;2023-04-25T13:53:40;13.33;;;7.63;;
8574;SDS011;4325;42.520;27.448;2023-04-25T13:56:07;12.80;;;7.77;;
8574;SDS011;4325;42.520;27.448;2023-04-25T13:58:35;14.43;;;7.83;;
8574;SDS011;4325;42.520;27.448;2023-04-25T14:01:02;16.63;;;13.43;;
8574;SDS011;4325;42.520;27.448;2023-04-25T14:03:30;13.17;;;8.83;;
8574;SDS011;4325;42.520;27.448;2023-04-25T14:05:57;13.50;;;7.57;;
8574;SDS011;4325;42.520;27.448;2023-04-25T14:08:24;11.17;;;7.43;;
8574;SDS011;4325;42.520;27.448;2023-04-25T14:10:50;10.90;;;8.20;;
8574;SDS011;4325;42.520;27.448;2023-04-25T14:13:17;13.87;;;10.00;;
8574;SDS011;4325;42.520;27.448;2023-04-25T14:15:46;18.57;;;10.20;;
8574;SDS011;4325;42.520;27.448;2023-04-25T14:18:13;14.30;;;9.73;;
8574;SDS011;4325;42.520;27.448;2023-04-25T14:20:39;17.90;;;7.87;;
8574;SDS011;4325;42.520;27.448;2023-04-25T14:23:06;11.17;;;8.67;;
8574;SDS011;4325;42.520;27.448;2023-04-25T14:25:33;14.47;;;9.53;;
8574;SDS011;4325;42.520;27.448;2023-04-25T14:28:02;18.90;;;10.93;;
8574;SDS011;4325;42.520;27.448;2023-04-25T14:30:29;22.87;;;10.30;;
8574;SDS011;4325;42.520;27.448;2023-04-25T14:32:57;18.97;;;8.80;;
8574;SDS011;4325;42.520;27.448;2023-04-25T14:35:24;13.17;;;7.70;;
8574;SDS011;4325;42.520;27.448;2023-04-25T14:37:51;11.37;;;7.80;;
8574;SDS011;4325;42.520;27.448;2023-04-25T14:40:19;13.83;;;7.43;;
8574;SDS011;4325;42.520;27.448;2023-04-25T14:42:48;13.50;;;7.93;;
8574;SDS011;4325;42.520;27.448;2023-04-25T14:45:15;23.17;;;9.37;;
8574;SDS011;4325;42.520;27.448;2023-04-25T14:47:42;12.53;;;7.63;;